Ulaan-Gom, Mongolia
Current Conditions -  °F | °C
As of 9:30 PM on Friday 19 Dec 2014 (Local Time) from UNAA Reporting Station
Overcast Overcast  
Wind Chill:   Ceiling: 10000
Heat Index:   Visibility: 5mi
Dew Point:   Wind: 0mph
Humidity: 85%   Direction: NA
Pressure: 30.62"   Gusts: NA
Location:  49.98°N, 92.08°E
Report Text: UNAA 191330Z 00000MPS 8000 SCT040 OVC100 M13/M15 Q1037 TEMPO0900 FZFG VV002 RMK QFE755 52190055
Loading
Personal Weather Stations






























Interactive Weather Map New forecast layout! Learn more

10-Day Weather Forecast

Advertisements
Track Severe Weather on mobile